Time;durP1;ratioP1;P1;durP2;ratioP2;P2;SDS_P1;SDS_P2;PMS_P1;PMS_P2;Temp;Humidity;BMP_temperature;BMP_pressure;BME280_temperature;BME280_humidity;BME280_pressure;Samples;Min_cycle;Max_cycle;Signal;HPM_P1;HPM_P2
2023/08/11 00:01:38;;;;;;;7.93;2.97;;;;;;;16.46;99.94;99114.16;4916134;29;20239;-63
2023/08/11 00:04:06;;;;;;;5.50;3.50;;;;;;;16.37;99.33;99116.84;4934698;29;20247;-63
2023/08/11 00:06:33;;;;;;;5.33;3.70;;;;;;;16.36;98.67;99117.84;4915142;29;20297;-63
2023/08/11 00:08:59;;;;;;;4.27;2.90;;;;;;;16.30;98.59;99110.66;4920437;29;20232;-64
2023/08/11 00:11:28;;;;;;;7.37;3.20;;;;;;;16.32;98.44;99124.47;4918981;29;20252;-64
2023/08/11 00:13:55;;;;;;;4.40;2.87;;;;;;;16.32;98.84;99124.47;4917432;28;20251;-64
2023/08/11 00:16:24;;;;;;;4.03;2.93;;;;;;;16.30;100.00;99115.91;4917474;29;20238;-64
2023/08/11 00:18:51;;;;;;;3.60;3.30;;;;;;;16.27;100.00;99115.47;4919140;29;20284;-64
2023/08/11 00:21:17;;;;;;;5.90;3.30;;;;;;;16.26;98.86;99121.72;4920699;28;20560;-64
2023/08/11 00:23:44;;;;;;;7.13;3.27;;;;;;;16.28;100.00;99130.28;4915558;29;20446;-64
2023/08/11 00:26:11;;;;;;;8.60;3.00;;;;;;;16.21;100.00;99130.97;4920996;28;20730;-64
2023/08/11 00:28:38;;;;;;;4.20;3.30;;;;;;;16.15;100.00;99131.66;4914606;28;20259;-64
2023/08/11 00:31:06;;;;;;;4.10;3.00;;;;;;;16.11;100.00;99137.44;4931869;28;20604;-64
2023/08/11 00:33:33;;;;;;;5.73;3.47;;;;;;;16.11;100.00;99130.38;4913131;28;20260;-64
2023/08/11 00:36:00;;;;;;;9.37;3.23;;;;;;;16.09;100.00;99132.38;4919136;29;20627;-64
2023/08/11 00:38:37;;;;;;;6.10;3.47;;;;;;;16.20;100.00;99137.22;4933869;28;20276;-64
2023/08/11 00:41:04;;;;;;;6.70;3.40;;;;;;;16.28;97.51;99138.97;4931627;28;20240;-64
2023/08/11 00:43:31;;;;;;;7.83;3.20;;;;;;;16.44;97.03;99135.41;4913909;28;20243;-64
2023/08/11 00:45:59;;;;;;;3.70;3.30;;;;;;;16.38;95.76;99142.19;4918306;29;20237;-64
2023/08/11 00:48:26;;;;;;;4.13;3.40;;;;;;;16.36;97.46;99146.03;4919578;29;20238;-64
2023/08/11 00:50:57;;;;;;;5.23;3.30;;;;;;;16.48;99.55;99141.94;4915155;29;20260;-64
2023/08/11 00:53:24;;;;;;;9.20;3.73;;;;;;;16.43;99.76;99143.50;4918172;29;20235;-64
2023/08/11 00:55:52;;;;;;;7.30;3.40;;;;;;;16.34;99.13;99142.75;4915093;29;20249;-64
2023/08/11 00:58:18;;;;;;;6.93;3.53;;;;;;;16.28;98.34;99138.19;4925428;29;20235;-64
2023/08/11 01:00:46;;;;;;;5.63;3.20;;;;;;;16.21;99.70;99138.88;4912620;29;20592;-64
2023/08/11 01:03:13;;;;;;;5.33;3.50;;;;;;;16.18;98.05;99130.50;4928825;29;20241;-64
2023/08/11 01:05:54;;;;;;;6.50;3.43;;;;;;;16.17;97.82;99128.84;4914769;28;20236;-64
2023/08/11 01:08:33;;;;;;;3.43;2.90;;;;;;;16.12;97.30;99126.75;4918700;29;20582;-64
2023/08/11 01:11:07;;;;;;;5.53;3.10;;;;;;;16.11;97.42;99126.91;4921442;29;20236;-64
2023/08/11 01:13:41;;;;;;;7.20;3.20;;;;;;;16.09;97.02;99135.00;4913240;28;20224;-64
2023/08/11 01:16:09;;;;;;;4.13;3.33;;;;;;;16.13;96.97;99127.56;4919842;28;20263;-64
2023/08/11 01:18:36;;;;;;;9.80;2.97;;;;;;;16.07;97.85;99129.09;4921665;28;20228;-64
2023/08/11 01:21:07;;;;;;;3.27;2.83;;;;;;;16.12;98.74;99124.13;4921011;29;20279;-64
2023/08/11 01:23:35;;;;;;;6.20;3.40;;;;;;;16.13;98.04;99122.28;4911732;29;20298;-64
2023/08/11 01:26:03;;;;;;;5.13;3.63;;;;;;;16.12;96.77;99120.66;4924075;29;20245;-64
2023/08/11 01:28:29;;;;;;;6.60;2.97;;;;;;;16.13;96.01;99124.91;4915788;29;20236;-64
2023/08/11 01:30:56;;;;;;;4.53;2.83;;;;;;;16.07;96.22;99119.34;4917020;29;20238;-63
2023/08/11 01:33:23;;;;;;;6.40;3.30;;;;;;;16.04;98.59;99118.91;4922724;29;20228;-63
2023/08/11 01:35:49;;;;;;;5.40;3.30;;;;;;;15.94;99.19;99119.94;4913521;28;20270;-63
2023/08/11 01:38:16;;;;;;;6.37;2.90;;;;;;;15.88;97.42;99117.19;4915727;28;20246;-63
2023/08/11 01:40:44;;;;;;;4.57;3.10;;;;;;;15.87;98.11;99118.19;4910314;29;20243;-64
2023/08/11 01:43:13;;;;;;;6.23;3.30;;;;;;;15.84;98.47;99116.66;4925635;29;20238;-64
2023/08/11 01:45:42;;;;;;;6.73;3.70;;;;;;;15.86;98.05;99119.94;4914863;29;20236;-64
2023/08/11 01:48:10;;;;;;;12.70;3.60;;;;;;;15.86;99.95;99116.50;4915878;29;20654;-64
2023/08/11 01:50:38;;;;;;;6.53;3.20;;;;;;;15.84;100.00;99110.59;4911489;29;20235;-64
2023/08/11 01:53:05;;;;;;;6.43;3.30;;;;;;;15.84;100.00;99111.41;4915731;29;20241;-64
2023/08/11 01:55:32;;;;;;;4.87;3.30;;;;;;;15.79;100.00;99119.00;4915296;29;20239;-63
2023/08/11 01:58:00;;;;;;;7.63;3.27;;;;;;;15.82;99.55;99123.13;4925784;29;20231;-63
2023/08/11 02:00:28;;;;;;;4.57;3.33;;;;;;;15.80;98.23;99120.63;4915261;29;20741;-63
2023/08/11 02:02:57;;;;;;;3.80;2.93;;;;;;;15.76;98.13;99117.56;4926739;28;20248;-64
2023/08/11 02:05:24;;;;;;;4.17;3.10;;;;;;;15.83;98.44;99120.28;4914498;29;20234;-63
2023/08/11 02:07:52;;;;;;;3.97;3.37;;;;;;;15.79;97.84;99119.84;4918878;29;20338;-64
2023/08/11 02:10:19;;;;;;;4.83;3.20;;;;;;;15.77;97.90;99118.34;4914405;29;20239;-64
2023/08/11 02:12:45;;;;;;;4.47;3.30;;;;;;;15.76;97.56;99121.97;4912294;28;20589;-64
2023/08/11 02:15:13;;;;;;;4.60;3.30;;;;;;;15.74;100.00;99124.78;4915962;29;20236;-63
2023/08/11 02:17:44;;;;;;;4.07;3.13;;;;;;;15.70;100.00;99118.22;4931950;28;20240;-64
2023/08/11 02:20:18;;;;;;;5.73;3.50;;;;;;;15.71;99.67;99116.41;4924540;29;20224;-64
2023/08/11 02:22:45;;;;;;;3.83;3.10;;;;;;;15.63;99.98;99112.03;4913817;28;20288;-61
2023/08/11 02:25:12;;;;;;;6.30;3.13;;;;;;;15.61;100.00;99114.81;4915275;29;20319;-63
2023/08/11 02:27:39;;;;;;;5.80;3.50;;;;;;;15.59;100.00;99113.34;4914896;28;20267;-62
2023/08/11 02:30:07;;;;;;;3.87;3.00;;;;;;;15.50;99.31;99113.38;4924869;29;20233;-62
2023/08/11 02:32:35;;;;;;;7.90;3.47;;;;;;;15.50;99.40;99113.38;4910975;28;20306;-62
2023/08/11 02:35:02;;;;;;;4.87;3.20;;;;;;;15.58;100.00;99111.72;4917110;29;20243;-62
2023/08/11 02:37:29;;;;;;;5.43;3.30;;;;;;;15.54;100.00;99118.31;4916549;28;20227;-63
2023/08/11 02:39:56;;;;;;;3.40;2.90;;;;;;;15.44;100.00;99108.81;4912692;29;20240;-62
2023/08/11 02:42:24;;;;;;;4.83;3.53;;;;;;;15.43;100.00;99107.16;4917217;29;20239;-62
2023/08/11 02:44:50;;;;;;;6.27;3.33;;;;;;;15.47;100.00;99115.53;4911949;29;20251;-63
2023/08/11 02:47:17;;;;;;;6.30;3.20;;;;;;;15.45;100.00;99106.97;4923568;29;20246;-63
2023/08/11 02:49:45;;;;;;;8.33;3.47;;;;;;;15.43;100.00;99103.69;4914746;29;20235;-63
2023/08/11 02:52:13;;;;;;;4.97;3.40;;;;;;;15.37;100.00;99105.22;4929993;28;20251;-62
2023/08/11 02:54:39;;;;;;;5.17;3.30;;;;;;;15.38;100.00;99101.59;4918508;29;20290;-62
2023/08/11 02:57:06;;;;;;;5.17;3.30;;;;;;;15.29;100.00;99097.34;4913656;28;20226;-62
2023/08/11 02:59:33;;;;;;;5.27;3.27;;;;;;;15.26;100.00;99098.53;4923981;29;20231;-63
2023/08/11 03:04:41;;;;;;;4.53;3.13;;;;;;;15.25;100.00;99096.88;5313650;23;20296;-56
2023/08/11 03:07:12;;;;;;;8.57;3.50;;;;;;;15.26;100.00;99097.69;4930995;28;20237;-56
2023/08/11 03:09:39;;;;;;;4.27;3.77;;;;;;;15.26;100.00;99088.00;4925887;29;21144;-56
2023/08/11 03:12:07;;;;;;;5.37;3.47;;;;;;;15.28;100.00;99093.06;4917755;29;20312;-55
2023/08/11 03:14:34;;;;;;;8.03;3.17;;;;;;;15.25;100.00;99093.41;4914975;29;20588;-56
2023/08/11 03:17:04;;;;;;;4.17;3.50;;;;;;;15.22;100.00;99105.09;4924064;29;20275;-54
2023/08/11 03:19:31;;;;;;;5.03;3.67;;;;;;;15.20;100.00;99101.81;4911825;29;20253;-56
2023/08/11 03:21:57;;;;;;;4.63;3.20;;;;;;;15.23;100.00;99098.84;4922692;29;20243;-56
2023/08/11 03:24:26;;;;;;;5.03;3.60;;;;;;;15.22;100.00;99107.75;4934785;28;20223;-56
2023/08/11 03:26:53;;;;;;;6.43;3.60;;;;;;;15.17;100.00;99123.19;4930358;29;20228;-56
2023/08/11 03:29:20;;;;;;;9.47;4.30;;;;;;;15.11;100.00;99114.16;4933901;29;20297;-56
2023/08/11 03:31:46;;;;;;;4.37;3.40;;;;;;;15.14;100.00;99118.28;5128605;23;20737;-55
2023/08/11 03:34:13;;;;;;;5.37;3.50;;;;;;;15.11;100.00;99124.66;4926589;29;20255;-55
2023/08/11 03:36:40;;;;;;;5.10;3.70;;;;;;;15.11;100.00;99124.66;4923018;29;20219;-56
2023/08/11 03:39:08;;;;;;;4.50;3.60;;;;;;;15.08;100.00;99127.63;4918103;29;20233;-56
2023/08/11 03:41:36;;;;;;;5.00;3.77;;;;;;;15.04;100.00;99128.97;4929742;29;20238;-55
2023/08/11 03:44:04;;;;;;;6.13;3.63;;;;;;;14.93;100.00;99129.31;4934211;29;20318;-56
2023/08/11 03:46:31;;;;;;;4.97;3.60;;;;;;;14.91;100.00;99132.13;4913672;29;20230;-56
2023/08/11 03:48:59;;;;;;;6.57;3.90;;;;;;;14.83;100.00;99130.31;4934267;29;20236;-55
2023/08/11 03:51:28;;;;;;;4.77;3.63;;;;;;;14.74;100.00;99134.75;4935567;28;20276;-56
2023/08/11 03:53:55;;;;;;;4.93;3.50;;;;;;;14.68;100.00;99134.56;4933144;28;20793;-55
2023/08/11 03:56:48;;;;;;;6.50;3.77;;;;;;;14.70;100.00;99135.25;4914784;28;20788;-54
2023/08/11 03:59:15;;;;;;;7.23;3.70;;;;;;;14.66;100.00;99134.72;4916814;29;20259;-56
2023/08/11 04:01:42;;;;;;;7.40;3.73;;;;;;;14.64;100.00;99130.63;4932114;28;20745;-55
2023/08/11 04:04:09;;;;;;;6.70;3.80;;;;;;;14.64;100.00;99134.06;4917855;29;20305;-56
2023/08/11 04:06:38;;;;;;;6.03;4.00;;;;;;;14.57;100.00;99128.66;4915836;29;20235;-56
2023/08/11 04:09:06;;;;;;;8.37;4.23;;;;;;;14.56;100.00;99126.19;4918147;29;20234;-54
2023/08/11 04:11:33;;;;;;;6.77;4.07;;;;;;;14.52;100.00;99117.81;4932623;28;20258;-55
2023/08/11 04:14:01;;;;;;;4.63;3.30;;;;;;;14.59;100.00;99116.19;4934240;29;20261;-55
2023/08/11 04:16:29;;;;;;;6.73;3.63;;;;;;;14.60;100.00;99125.72;4920058;29;20240;-56
2023/08/11 04:18:55;;;;;;;4.63;3.77;;;;;;;14.60;100.00;99128.34;4915104;29;20638;-56
2023/08/11 04:21:25;;;;;;;4.53;3.77;;;;;;;14.68;100.00;99121.44;4933747;29;20231;-55
2023/08/11 04:23:52;;;;;;;5.40;4.00;;;;;;;14.67;100.00;99125.06;4927490;29;20238;-55
2023/08/11 04:26:19;;;;;;;4.27;3.60;;;;;;;14.70;100.00;99128.19;4933831;29;20677;-56
2023/08/11 04:28:45;;;;;;;5.73;3.80;;;;;;;14.77;100.00;99125.75;4918356;29;20584;-55
2023/08/11 04:31:16;;;;;;;5.23;3.70;;;;;;;14.79;100.00;99130.81;4932240;28;20271;-56
2023/08/11 04:33:43;;;;;;;4.03;3.50;;;;;;;14.79;100.00;99130.81;4926914;29;20223;-56
2023/08/11 04:36:11;;;;;;;6.60;4.10;;;;;;;14.78;100.00;99135.25;4931370;29;20309;-56
2023/08/11 04:38:39;;;;;;;4.77;3.97;;;;;;;14.89;100.00;99148.03;4913253;29;20243;-56
2023/08/11 04:41:06;;;;;;;7.10;3.33;;;;;;;14.87;100.00;99142.13;4915518;29;20237;-55
2023/08/11 04:43:33;;;;;;;6.57;4.27;;;;;;;14.88;100.00;99145.59;4929406;29;20259;-56
2023/08/11 04:46:00;;;;;;;5.43;3.40;;;;;;;14.91;100.00;99146.06;4918018;29;20237;-56
2023/08/11 04:48:29;;;;;;;8.43;4.13;;;;;;;14.91;100.00;99153.94;4916928;29;20228;-56
2023/08/11 04:50:56;;;;;;;4.67;3.80;;;;;;;14.93;100.00;99155.59;4920458;29;20295;-56
2023/08/11 04:53:23;;;;;;;7.60;4.40;;;;;;;14.93;100.00;99153.78;4935982;28;20235;-55
2023/08/11 04:55:51;;;;;;;5.80;3.43;;;;;;;14.95;100.00;99157.09;4930134;28;20246;-56
2023/08/11 04:58:19;;;;;;;4.90;4.20;;;;;;;14.99;100.00;99155.75;4917202;29;20232;-55
2023/08/11 05:00:46;;;;;;;8.43;4.20;;;;;;;15.09;100.00;99170.53;4910270;29;20719;-55
2023/08/11 05:03:12;;;;;;;8.90;4.07;;;;;;;15.07;100.00;99162.81;4933076;29;20220;-55
2023/08/11 05:05:41;;;;;;;5.43;3.80;;;;;;;15.05;100.00;99172.66;4917794;28;20218;-56
2023/08/11 05:08:07;;;;;;;4.03;3.63;;;;;;;15.05;100.00;99176.13;4918317;29;20667;-56
2023/08/11 05:10:34;;;;;;;6.70;3.90;;;;;;;15.10;100.00;99180.88;4916659;28;20235;-55
2023/08/11 05:13:01;;;;;;;6.93;4.10;;;;;;;15.10;100.00;99170.34;4919660;29;20691;-55
2023/08/11 05:15:27;;;;;;;8.17;4.30;;;;;;;15.14;100.00;99171.66;4932784;29;20234;-55
2023/08/11 05:17:54;;;;;;;4.70;4.07;;;;;;;15.17;100.00;99176.59;4930592;29;20227;-55
2023/08/11 05:20:21;;;;;;;6.03;3.90;;;;;;;15.22;100.00;99180.53;4915554;29;20244;-56
2023/08/11 05:22:52;;;;;;;5.57;3.90;;;;;;;15.25;100.00;99170.50;4917127;29;20223;-55
2023/08/11 05:25:18;;;;;;;4.17;3.40;;;;;;;15.27;100.00;99179.06;4917910;29;20299;-55
2023/08/11 05:27:45;;;;;;;5.67;4.27;;;;;;;15.30;100.00;99178.72;4914302;29;20235;-55
2023/08/11 05:30:12;;;;;;;5.70;4.33;;;;;;;15.35;100.00;99178.22;4916779;29;20230;-56
2023/08/11 05:32:39;;;;;;;5.43;4.20;;;;;;;15.37;100.00;99181.50;4913726;29;20325;-55
2023/08/11 05:35:08;;;;;;;4.87;3.90;;;;;;;15.40;100.00;99173.25;4917498;29;20233;-55
2023/08/11 05:37:34;;;;;;;4.97;4.33;;;;;;;15.44;100.00;99176.38;4916145;29;20702;-56
2023/08/11 05:40:04;;;;;;;7.97;4.33;;;;;;;15.48;100.00;99178.50;4918422;29;20232;-56
2023/08/11 05:42:30;;;;;;;4.23;3.77;;;;;;;15.54;100.00;99176.19;4917000;29;20231;-56
2023/08/11 05:44:57;;;;;;;5.03;3.90;;;;;;;15.58;100.00;99175.66;4917488;29;20235;-56
2023/08/11 05:47:23;;;;;;;6.30;3.93;;;;;;;15.63;100.00;99181.25;4916639;29;20618;-55
2023/08/11 05:49:51;;;;;;;5.07;4.40;;;;;;;15.67;100.00;99188.78;4913311;29;20236;-56
2023/08/11 05:52:18;;;;;;;5.83;4.20;;;;;;;15.71;100.00;99177.78;4915286;29;20703;-56
2023/08/11 05:54:44;;;;;;;6.10;3.80;;;;;;;15.77;100.00;99178.88;4912213;29;20235;-56
2023/08/11 05:57:13;;;;;;;5.23;3.93;;;;;;;15.81;100.00;99189.91;4917282;29;20513;-55
2023/08/11 05:59:42;;;;;;;8.47;4.10;;;;;;;15.87;100.00;99179.53;4912651;29;20231;-56
2023/08/11 06:02:09;;;;;;;6.30;4.10;;;;;;;15.94;100.00;99190.19;4915999;29;20239;-56
2023/08/11 06:04:37;;;;;;;5.77;3.97;;;;;;;16.02;100.00;99194.63;4916533;28;20243;-56
2023/08/11 06:07:04;;;;;;;8.80;4.03;;;;;;;16.11;100.00;99192.75;4917531;29;20732;-55
2023/08/11 06:09:31;;;;;;;5.70;3.90;;;;;;;16.17;100.00;99189.41;4916344;29;20233;-56
2023/08/11 06:11:57;;;;;;;6.57;4.07;;;;;;;16.25;100.00;99193.84;4916121;29;20235;-56
2023/08/11 06:14:27;;;;;;;4.80;3.67;;;;;;;16.33;100.00;99191.97;4914852;29;20690;-55
2023/08/11 06:16:53;;;;;;;5.67;3.80;;;;;;;16.43;100.00;99183.00;4911950;29;20745;-56
2023/08/11 06:19:20;;;;;;;4.60;3.67;;;;;;;16.55;100.00;99186.88;4932224;29;20219;-54
2023/08/11 06:21:47;;;;;;;4.60;3.93;;;;;;;16.63;100.00;99192.09;4911246;29;20238;-56
2023/08/11 06:24:13;;;;;;;4.70;3.77;;;;;;;16.68;100.00;99192.38;4917326;29;20720;-56
2023/08/11 06:26:40;;;;;;;5.17;4.30;;;;;;;16.77;100.00;99194.97;4913274;29;20231;-55
2023/08/11 06:29:07;;;;;;;6.40;4.00;;;;;;;16.85;100.00;99196.69;4916664;29;20227;-56
2023/08/11 06:31:35;;;;;;;3.93;3.53;;;;;;;16.92;100.00;99192.34;4913713;29;20236;-56
2023/08/11 06:34:02;;;;;;;6.33;4.10;;;;;;;17.00;100.00;99192.31;4918205;29;20362;-54
2023/08/11 06:36:29;;;;;;;4.43;3.90;;;;;;;17.12;100.00;99203.25;4929382;29;20242;-56
2023/08/11 06:38:57;;;;;;;7.93;3.90;;;;;;;17.24;100.00;99201.00;4916543;29;20232;-56
2023/08/11 06:41:28;;;;;;;5.10;3.80;;;;;;;17.43;100.00;99207.56;4917456;29;20232;-56
2023/08/11 06:43:56;;;;;;;10.80;4.03;;;;;;;17.58;100.00;99209.41;4913171;29;20236;-56
2023/08/11 06:46:28;;;;;;;8.73;4.50;;;;;;;17.81;100.00;99211.94;4917455;29;20231;-56
2023/08/11 06:48:56;;;;;;;5.53;3.60;;;;;;;17.95;100.00;99210.28;4913513;28;20579;-57
2023/08/11 06:51:28;;;;;;;5.43;4.37;;;;;;;18.11;100.00;99214.56;4916393;29;20242;-56
2023/08/11 06:53:55;;;;;;;7.37;5.07;;;;;;;18.22;97.68;99219.38;4909934;28;20587;-56
2023/08/11 06:56:46;;;;;;;7.23;4.37;;;;;;;18.27;96.75;99224.09;4914100;29;20239;-56
2023/08/11 06:59:13;;;;;;;5.83;4.30;;;;;;;18.46;93.32;99220.03;4920509;29;20215;-56
2023/08/11 07:01:41;;;;;;;4.67;4.17;;;;;;;18.53;95.39;99220.09;4918436;29;20793;-56
2023/08/11 07:04:09;;;;;;;13.40;5.00;;;;;;;18.63;91.17;99220.59;4920055;28;20234;-56
2023/08/11 07:06:35;;;;;;;6.17;4.67;;;;;;;18.78;91.84;99227.66;4918557;29;20216;-56
2023/08/11 07:09:02;;;;;;;7.33;4.70;;;;;;;18.90;90.00;99231.44;4921727;29;20294;-56
2023/08/11 07:11:28;;;;;;;6.50;4.17;;;;;;;18.99;91.66;99234.78;4922847;29;20231;-56
2023/08/11 07:13:55;;;;;;;11.37;5.20;;;;;;;19.10;89.30;99225.50;4915572;29;20224;-56
2023/08/11 07:16:28;;;;;;;6.50;4.10;;;;;;;19.21;92.05;99232.09;4920975;29;20645;-56
2023/08/11 07:18:55;;;;;;;5.50;4.53;;;;;;;19.25;90.24;99233.34;4916685;29;20241;-56
2023/08/11 07:21:27;;;;;;;4.60;4.20;;;;;;;19.33;91.02;99220.78;4921034;29;20570;-56
2023/08/11 07:23:53;;;;;;;7.87;4.43;;;;;;;19.40;89.23;99222.66;4917093;29;20232;-56
2023/08/11 07:26:20;;;;;;;8.13;5.03;;;;;;;19.52;86.28;99223.75;4921019;29;20605;-56
2023/08/11 07:28:46;;;;;;;6.10;4.23;;;;;;;19.49;85.57;99228.63;4919113;29;20272;-56
2023/08/11 07:31:13;;;;;;;11.77;4.40;;;;;;;19.54;86.62;99227.03;4933135;28;20239;-57
2023/08/11 07:33:42;;;;;;;6.83;5.23;;;;;;;19.69;90.07;99234.84;4918155;28;20218;-56
2023/08/11 07:36:09;;;;;;;7.97;5.23;;;;;;;19.69;85.22;99234.03;4921354;29;20232;-56
2023/08/11 07:38:37;;;;;;;9.20;5.40;;;;;;;19.75;85.11;99234.06;4915083;28;20602;-56
2023/08/11 07:41:03;;;;;;;5.87;4.77;;;;;;;19.80;84.53;99233.47;4921333;29;20249;-57
2023/08/11 07:43:30;;;;;;;8.20;4.60;;;;;;;19.88;84.48;99235.13;4920140;29;20874;-56
2023/08/11 07:45:57;;;;;;;7.73;4.80;;;;;;;19.84;83.82;99237.38;4917912;29;20241;-57
2023/08/11 07:48:23;;;;;;;5.83;4.57;;;;;;;20.02;83.66;99236.06;4918308;29;20220;-57
2023/08/11 07:50:50;;;;;;;7.87;4.43;;;;;;;20.13;85.80;99237.31;4916491;29;20230;-55
2023/08/11 07:53:16;;;;;;;8.03;4.80;;;;;;;20.24;83.69;99239.41;4932549;28;20237;-57
2023/08/11 07:55:45;;;;;;;6.07;4.60;;;;;;;20.30;83.64;99243.91;4916580;29;20232;-56
2023/08/11 07:58:11;;;;;;;8.23;4.30;;;;;;;20.38;84.41;99237.59;4920187;28;20222;-57
2023/08/11 08:00:38;;;;;;;7.40;4.83;;;;;;;20.29;87.29;99242.28;4915819;29;20728;-56
2023/08/11 08:03:05;;;;;;;10.87;4.60;;;;;;;20.48;85.11;99237.22;4919322;29;20242;-57
2023/08/11 08:05:32;;;;;;;9.23;4.70;;;;;;;20.44;81.09;99239.44;4929103;29;21104;-57
2023/08/11 08:07:59;;;;;;;5.47;4.30;;;;;;;20.57;83.15;99237.84;4920137;29;20289;-56
2023/08/11 08:10:25;;;;;;;7.30;4.40;;;;;;;20.75;82.47;99246.03;4916162;29;20233;-57
2023/08/11 08:12:53;;;;;;;9.10;4.80;;;;;;;20.86;83.65;99249.16;4917658;29;20649;-57
2023/08/11 08:15:20;;;;;;;6.97;4.93;;;;;;;20.82;81.60;99258.53;4920199;29;20217;-57
2023/08/11 08:17:46;;;;;;;5.20;3.97;;;;;;;20.82;80.29;99255.88;4917432;28;20237;-56
2023/08/11 08:20:15;;;;;;;7.83;4.43;;;;;;;20.85;80.70;99252.81;4919699;29;20229;-56
2023/08/11 08:22:42;;;;;;;5.73;4.77;;;;;;;20.92;80.77;99257.09;4918265;28;20359;-56
2023/08/11 08:25:09;;;;;;;7.57;4.30;;;;;;;21.06;82.31;99260.59;4917447;29;20232;-56
2023/08/11 08:27:37;;;;;;;8.53;4.00;;;;;;;21.18;79.88;99263.44;4916329;28;20221;-56
2023/08/11 08:30:07;;;;;;;6.00;4.70;;;;;;;21.17;79.77;99269.78;4918580;29;20251;-56
2023/08/11 08:32:34;;;;;;;7.60;4.13;;;;;;;21.18;80.60;99267.94;4916386;28;20231;-56
2023/08/11 08:35:02;;;;;;;6.33;4.57;;;;;;;21.27;82.53;99273.84;4936714;29;20225;-56
2023/08/11 08:37:29;;;;;;;8.77;4.50;;;;;;;21.37;81.85;99269.75;4917861;29;20253;-56
2023/08/11 08:39:56;;;;;;;6.13;4.33;;;;;;;21.46;80.96;99269.53;4913765;29;20260;-57
2023/08/11 08:42:25;;;;;;;5.33;4.33;;;;;;;21.59;79.24;99274.84;4916678;29;20285;-56
2023/08/11 08:44:53;;;;;;;7.40;4.47;;;;;;;21.49;76.45;99258.50;4916315;29;20242;-56
2023/08/11 08:47:22;;;;;;;8.13;4.13;;;;;;;21.58;75.81;99262.56;4917768;29;20249;-56
2023/08/11 08:49:49;;;;;;;7.17;4.10;;;;;;;21.74;76.84;99260.53;4913743;29;20554;-57
2023/08/11 08:52:17;;;;;;;8.30;4.60;;;;;;;21.70;74.52;99261.97;4918817;29;20222;-57
2023/08/11 08:54:44;;;;;;;7.23;4.10;;;;;;;21.76;75.36;99263.81;4917545;29;20229;-57
2023/08/11 08:57:11;;;;;;;7.80;4.67;;;;;;;21.85;73.39;99265.22;4917565;29;20238;-57
2023/08/11 08:59:38;;;;;;;7.53;4.20;;;;;;;21.90;73.36;99268.06;4914219;29;20217;-57
2023/08/11 09:02:06;;;;;;;5.07;4.53;;;;;;;21.86;72.05;99269.50;4915925;29;20235;-56
2023/08/11 09:04:34;;;;;;;5.70;4.40;;;;;;;21.99;73.09;99265.97;4913212;29;20726;-56
2023/08/11 09:07:01;;;;;;;7.73;4.00;;;;;;;21.97;74.59;99265.38;4920417;29;20285;-57
2023/08/11 09:09:28;;;;;;;6.63;4.57;;;;;;;22.00;74.21;99264.94;4930758;29;20223;-57
2023/08/11 09:11:55;;;;;;;6.70;3.90;;;;;;;22.11;72.95;99266.16;4916190;29;20691;-57
2023/08/11 09:14:23;;;;;;;7.67;4.37;;;;;;;22.21;73.82;99266.50;4919460;29;20222;-56
2023/08/11 09:16:51;;;;;;;8.53;4.27;;;;;;;22.24;73.01;99271.41;4916944;29;20251;-57
2023/08/11 09:19:19;;;;;;;6.17;4.27;;;;;;;22.27;73.23;99270.16;4919389;28;20238;-56
2023/08/11 09:21:48;;;;;;;10.60;5.20;;;;;;;22.30;72.73;99264.41;4914062;29;20232;-56
2023/08/11 09:24:15;;;;;;;5.73;5.10;;;;;;;22.28;72.71;99261.16;4916481;29;20223;-54
2023/08/11 09:26:44;;;;;;;6.70;4.40;;;;;;;22.47;73.21;99259.44;4928287;28;20228;-56
2023/08/11 09:29:11;;;;;;;6.30;4.20;;;;;;;22.54;73.15;99257.56;4918951;29;20243;-56
2023/08/11 09:31:39;;;;;;;7.13;4.80;;;;;;;22.57;72.58;99253.66;4914931;28;20231;-56
2023/08/11 09:34:13;;;;;;;6.57;4.70;;;;;;;22.68;72.57;99254.81;4916944;29;20243;-56
2023/08/11 09:36:42;;;;;;;5.67;4.50;;;;;;;22.64;71.91;99259.78;4910699;29;20228;-57
2023/08/11 09:39:10;;;;;;;8.27;4.53;;;;;;;22.77;72.77;99263.38;4916521;29;20315;-57
2023/08/11 09:41:41;;;;;;;6.43;4.57;;;;;;;22.85;70.90;99257.75;4930383;28;20260;-56
2023/08/11 09:44:08;;;;;;;6.47;4.70;;;;;;;22.92;71.89;99261.19;4918511;29;20255;-56
2023/08/11 09:46:37;;;;;;;6.93;4.53;;;;;;;23.08;71.18;99259.03;4914181;29;20727;-56
2023/08/11 09:49:04;;;;;;;6.07;5.10;;;;;;;22.92;70.93;99255.06;4917771;29;20241;-56
2023/08/11 09:51:33;;;;;;;6.50;4.30;;;;;;;23.03;70.23;99256.19;4917021;29;20704;-56
2023/08/11 09:54:02;;;;;;;6.47;4.43;;;;;;;23.15;71.94;99257.13;4921801;29;20233;-57
2023/08/11 09:56:34;;;;;;;5.93;4.40;;;;;;;23.13;70.18;99261.84;4917156;29;20253;-56
2023/08/11 09:59:03;;;;;;;6.17;5.13;;;;;;;23.25;70.23;99259.34;4917064;29;20694;-56
2023/08/11 10:01:34;;;;;;;5.20;4.30;;;;;;;23.49;70.85;99264.84;4916676;29;20221;-56
2023/08/11 10:04:07;;;;;;;9.70;5.00;;;;;;;23.56;69.60;99262.94;4915170;29;20688;-56
2023/08/11 10:06:36;;;;;;;5.10;4.40;;;;;;;23.67;69.62;99262.19;4913454;28;20240;-56
2023/08/11 10:09:04;;;;;;;5.00;4.30;;;;;;;23.62;69.13;99266.56;4919838;29;20251;-55
2023/08/11 10:11:35;;;;;;;7.23;4.40;;;;;;;23.69;68.42;99265.47;4919532;28;20220;-57
2023/08/11 10:14:04;;;;;;;5.87;4.47;;;;;;;23.73;67.64;99255.97;4914599;29;20220;-57
2023/08/11 10:16:31;;;;;;;7.60;4.27;;;;;;;23.94;68.28;99259.25;4914169;28;20231;-57
2023/08/11 10:19:00;;;;;;;8.87;3.90;;;;;;;23.92;67.63;99260.47;4914051;29;20240;-57
2023/08/11 10:21:29;;;;;;;7.13;4.63;;;;;;;23.91;69.89;99256.19;4919552;29;20229;-56
2023/08/11 10:23:55;;;;;;;5.87;4.40;;;;;;;24.08;68.39;99254.59;4915211;28;20252;-54
2023/08/11 10:26:31;;;;;;;6.40;4.43;;;;;;;24.18;66.79;99257.53;4915946;29;20241;-56
2023/08/11 10:28:59;;;;;;;4.70;4.20;;;;;;;24.24;66.95;99252.34;4927568;29;20247;-56
2023/08/11 10:31:32;;;;;;;5.43;4.07;;;;;;;24.46;67.64;99247.31;4916064;29;20728;-56
2023/08/11 10:33:59;;;;;;;6.53;4.33;;;;;;;24.51;65.44;99246.66;4912603;29;20289;-56
2023/08/11 10:36:29;;;;;;;6.50;4.20;;;;;;;24.52;65.44;99246.41;4917537;29;20285;-56
2023/08/11 10:39:03;;;;;;;4.70;4.30;;;;;;;24.68;64.58;99242.28;4928520;29;21192;-56
2023/08/11 10:41:31;;;;;;;5.03;4.30;;;;;;;24.71;65.23;99236.50;4918345;29;20230;-57
2023/08/11 10:43:59;;;;;;;6.40;3.70;;;;;;;24.68;61.76;99236.13;4914582;28;20631;-57
2023/08/11 10:46:30;;;;;;;3.77;3.47;;;;;;;24.81;61.48;99230.59;4914978;29;20751;-57
2023/08/11 10:48:59;;;;;;;5.03;3.47;;;;;;;24.95;59.20;99219.72;4915272;29;20235;-56
2023/08/11 10:51:33;;;;;;;7.93;3.70;;;;;;;25.00;58.97;99225.97;4918738;29;20227;-56
2023/08/11 10:54:10;;;;;;;6.70;3.50;;;;;;;25.18;58.10;99219.72;4914502;29;20223;-56
2023/08/11 10:56:39;;;;;;;5.30;3.60;;;;;;;25.38;58.22;99223.09;4911889;29;20221;-56
2023/08/11 10:59:09;;;;;;;5.23;3.30;;;;;;;25.51;58.02;99222.88;4915685;29;20242;-56
2023/08/11 11:01:37;;;;;;;6.23;3.40;;;;;;;25.64;58.10;99219.94;4910359;28;20238;-56
2023/08/11 11:04:04;;;;;;;7.53;2.80;;;;;;;25.63;57.30;99217.50;4913975;29;20253;-56
2023/08/11 11:06:31;;;;;;;4.70;3.10;;;;;;;25.53;57.38;99218.09;4915643;29;20228;-57
2023/08/11 11:08:57;;;;;;;4.93;3.30;;;;;;;25.68;55.69;99216.81;4918454;29;20234;-56
2023/08/11 11:11:28;;;;;;;3.60;2.70;;;;;;;25.68;55.84;99214.13;4914570;29;20228;-56
2023/08/11 11:13:55;;;;;;;4.53;3.00;;;;;;;25.77;54.19;99218.06;4909746;29;20235;-56
2023/08/11 11:16:28;;;;;;;4.70;3.20;;;;;;;25.66;55.01;99214.34;4915926;29;20228;-56
2023/08/11 11:18:54;;;;;;;5.80;3.63;;;;;;;25.74;56.00;99219.34;4908828;28;20654;-56
2023/08/11 11:21:21;;;;;;;5.27;3.17;;;;;;;25.86;55.39;99216.63;4916115;29;20242;-57
2023/08/11 11:23:49;;;;;;;6.23;3.53;;;;;;;25.96;55.70;99216.00;4915378;29;20230;-57
2023/08/11 11:26:21;;;;;;;3.93;3.00;;;;;;;26.01;55.48;99213.44;4918688;28;20232;-56
2023/08/11 11:28:48;;;;;;;4.70;2.93;;;;;;;26.00;54.29;99214.50;4915356;28;20227;-56
2023/08/11 11:31:16;;;;;;;3.93;3.13;;;;;;;25.94;55.17;99208.25;4916985;28;20228;-57
2023/08/11 11:33:45;;;;;;;3.80;3.13;;;;;;;26.13;55.95;99212.59;4917086;29;20783;-57
2023/08/11 11:36:13;;;;;;;4.63;3.13;;;;;;;26.25;56.43;99201.84;4918849;28;21138;-56